Time;durP1;ratioP1;P1;durP2;ratioP2;P2;SDS_P1;SDS_P2;PMS_P1;PMS_P2;Temp;Humidity;BMP_temperature;BMP_pressure;BME280_temperature;BME280_humidity;BME280_pressure;Samples;Min_cycle;Max_cycle;Signal;HPM_P1;HPM_P2
2022/12/05 00:01:39;;;;;;;24.48;13.38;;;4.40;99.90;;;;;;5058654;28;20033;-72
2022/12/05 00:04:08;;;;;;;27.55;14.68;;;4.40;99.90;;;;;;5041697;28;20057;-72
2022/12/05 00:06:35;;;;;;;27.90;14.43;;;4.40;99.90;;;;;;5058579;28;20495;-71
2022/12/05 00:09:03;;;;;;;28.08;15.70;;;4.40;99.90;;;;;;5058952;28;20045;-72
2022/12/05 00:11:30;;;;;;;27.90;15.82;;;4.50;99.90;;;;;;5059727;28;20037;-72
2022/12/05 00:13:58;;;;;;;30.75;16.15;;;4.50;99.90;;;;;;5058123;28;20025;-72
2022/12/05 00:16:25;;;;;;;34.10;16.67;;;4.40;99.90;;;;;;5057928;28;20040;-71
2022/12/05 00:18:51;;;;;;;31.30;15.68;;;4.40;99.90;;;;;;5041652;28;20129;-71
2022/12/05 00:21:20;;;;;;;28.13;15.00;;;4.40;99.90;;;;;;5059307;28;20449;-71
2022/12/05 00:23:46;;;;;;;28.70;15.75;;;4.40;99.90;;;;;;5058909;28;20023;-71
2022/12/05 00:26:12;;;;;;;30.92;16.10;;;4.40;99.90;;;;;;5058800;28;20103;-71
2022/12/05 00:28:38;;;;;;;30.23;14.98;;;4.40;99.90;;;;;;5040856;28;20025;-71
2022/12/05 00:31:11;;;;;;;29.83;15.57;;;4.40;99.90;;;;;;5040971;28;20079;-72
2022/12/05 00:33:37;;;;;;;27.38;15.25;;;4.40;99.90;;;;;;5057735;28;20029;-71
2022/12/05 00:36:09;;;;;;;28.23;15.10;;;4.40;99.90;;;;;;5040110;28;20065;-71
2022/12/05 00:38:34;;;;;;;33.03;15.82;;;4.40;99.90;;;;;;5057672;28;20021;-71
2022/12/05 00:41:08;;;;;;;29.98;15.15;;;4.40;99.90;;;;;;5057936;28;20021;-72
2022/12/05 00:43:34;;;;;;;32.55;15.93;;;4.40;99.90;;;;;;5039850;28;20408;-72
2022/12/05 00:46:09;;;;;;;28.25;14.48;;;4.40;99.90;;;;;;5058175;28;20043;-71
2022/12/05 00:48:35;;;;;;;27.30;15.05;;;4.40;99.90;;;;;;5056238;28;20045;-71
2022/12/05 00:51:10;;;;;;;31.58;16.13;;;4.40;99.90;;;;;;5057132;28;20037;-71
2022/12/05 00:53:37;;;;;;;38.17;16.95;;;4.40;99.90;;;;;;5057566;28;20115;-71
2022/12/05 00:56:05;;;;;;;32.90;15.95;;;4.40;99.90;;;;;;5038513;28;20116;-71
2022/12/05 00:58:31;;;;;;;30.67;16.35;;;4.40;99.90;;;;;;5038908;28;20029;-71
2022/12/05 01:01:04;;;;;;;32.13;16.13;;;4.40;99.90;;;;;;5038609;28;20029;-71
2022/12/05 01:03:29;;;;;;;32.97;16.25;;;4.40;99.90;;;;;;5057268;28;20028;-71
2022/12/05 01:05:57;;;;;;;33.25;15.93;;;4.40;99.90;;;;;;5056612;28;20369;-71
2022/12/05 01:08:23;;;;;;;31.52;15.50;;;4.40;99.90;;;;;;5056658;28;20036;-71
2022/12/05 01:10:56;;;;;;;32.67;15.68;;;4.30;99.90;;;;;;5037893;28;20120;-70
2022/12/05 01:13:23;;;;;;;32.45;16.77;;;4.30;99.90;;;;;;5038936;28;20040;-71
2022/12/05 01:15:49;;;;;;;34.88;15.75;;;4.30;99.90;;;;;;5056028;28;20032;-71
2022/12/05 01:18:15;;;;;;;34.13;15.90;;;4.40;99.90;;;;;;5038519;28;20025;-71
2022/12/05 01:20:41;;;;;;;26.35;15.02;;;4.40;99.90;;;;;;5038130;28;20420;-71
2022/12/05 01:23:07;;;;;;;36.35;17.00;;;4.30;99.90;;;;;;5038660;28;20036;-71
2022/12/05 01:25:33;;;;;;;30.35;16.13;;;4.30;99.90;;;;;;5038653;28;20029;-71
2022/12/05 01:27:59;;;;;;;28.63;14.98;;;4.30;99.90;;;;;;5039713;28;20040;-71
2022/12/05 01:30:25;;;;;;;28.10;15.35;;;4.40;99.90;;;;;;5056212;28;20387;-71
2022/12/05 01:32:50;;;;;;;30.98;15.27;;;4.30;99.90;;;;;;5037920;28;20029;-71
2022/12/05 01:35:16;;;;;;;30.05;15.00;;;4.40;99.90;;;;;;5038279;28;20033;-71
2022/12/05 01:37:42;;;;;;;34.00;15.05;;;4.30;99.90;;;;;;5056261;28;20029;-71
2022/12/05 01:40:08;;;;;;;29.52;14.73;;;4.40;99.90;;;;;;5038759;28;20029;-71
2022/12/05 01:42:34;;;;;;;27.17;14.30;;;4.40;99.90;;;;;;5038857;28;20033;-71
2022/12/05 01:45:11;;;;;;;23.63;13.80;;;4.40;99.90;;;;;;5056349;28;20044;-71
2022/12/05 01:47:37;;;;;;;25.77;13.98;;;4.40;99.90;;;;;;5055254;28;20024;-71
2022/12/05 01:50:03;;;;;;;25.90;13.68;;;4.40;99.90;;;;;;5056433;28;20029;-72
2022/12/05 01:52:31;;;;;;;31.60;14.25;;;4.40;99.90;;;;;;5038676;28;20059;-71
2022/12/05 01:55:03;;;;;;;25.27;12.95;;;4.40;99.90;;;;;;5037969;28;20033;-72
2022/12/05 01:57:30;;;;;;;22.38;13.05;;;4.40;99.90;;;;;;5058738;28;20033;-72
2022/12/05 02:00:00;;;;;;;30.42;14.80;;;4.40;99.90;;;;;;5043788;28;20376;-72
2022/12/05 02:02:28;;;;;;;24.23;13.85;;;4.40;99.90;;;;;;5061939;28;20059;-72
2022/12/05 02:05:23;;;;;;;26.55;13.90;;;4.40;99.90;;;;;;5044613;28;20025;-72
2022/12/05 02:07:49;;;;;;;24.15;13.32;;;4.40;99.90;;;;;;5041207;28;20029;-72
2022/12/05 02:10:14;;;;;;;25.90;13.25;;;4.40;99.90;;;;;;5043120;28;20102;-71
2022/12/05 02:12:42;;;;;;;25.73;12.80;;;4.40;99.90;;;;;;5060935;28;20029;-71
2022/12/05 02:15:23;;;;;;;23.27;12.60;;;4.40;99.90;;;;;;5043574;28;20029;-71
2022/12/05 02:18:03;;;;;;;23.77;13.23;;;4.40;99.90;;;;;;5041743;28;20441;-71
2022/12/05 02:21:03;;;;;;;25.95;12.60;;;4.40;99.90;;;;;;5058846;28;20060;-72
2022/12/05 02:24:11;;;;;;;24.73;11.98;;;4.40;99.90;;;;;;5058817;28;20029;-71
2022/12/05 02:27:05;;;;;;;24.48;13.48;;;4.40;99.90;;;;;;5058965;28;20104;-72
2022/12/05 02:29:58;;;;;;;20.50;11.25;;;4.40;99.90;;;;;;5058627;28;20440;-71
2022/12/05 02:32:33;;;;;;;22.40;11.35;;;4.40;99.90;;;;;;5040352;28;20485;-71
2022/12/05 02:35:10;;;;;;;21.20;11.80;;;4.40;99.90;;;;;;5058627;28;20029;-71
2022/12/05 02:38:04;;;;;;;23.02;11.75;;;4.40;99.90;;;;;;5060968;28;20064;-71
2022/12/05 02:40:39;;;;;;;21.83;11.55;;;4.40;99.90;;;;;;5044790;28;20040;-72
2022/12/05 02:43:17;;;;;;;22.48;11.77;;;4.40;99.90;;;;;;5043073;28;20037;-71
2022/12/05 02:45:46;;;;;;;22.42;11.40;;;4.40;99.90;;;;;;5062753;28;20029;-72
2022/12/05 02:48:14;;;;;;;22.42;11.00;;;4.40;99.90;;;;;;5061601;28;20523;-71
2022/12/05 02:50:42;;;;;;;18.13;10.95;;;4.40;99.90;;;;;;5062463;28;20025;-72
2022/12/05 02:53:11;;;;;;;17.17;10.85;;;4.40;99.90;;;;;;5060795;28;20037;-71
2022/12/05 02:55:38;;;;;;;20.75;11.60;;;4.40;99.90;;;;;;5059916;28;20084;-71
2022/12/05 02:58:11;;;;;;;19.88;10.52;;;4.40;99.90;;;;;;5044055;28;20048;-71
2022/12/05 03:00:41;;;;;;;17.92;9.70;;;4.30;99.90;;;;;;5061149;28;20039;-71
2022/12/05 03:03:14;;;;;;;18.73;10.55;;;4.30;99.90;;;;;;5060428;28;20025;-71
2022/12/05 03:05:54;;;;;;;17.63;9.45;;;4.30;99.90;;;;;;5060731;28;20381;-71
2022/12/05 03:08:39;;;;;;;19.05;10.27;;;4.30;99.90;;;;;;5060603;28;20032;-71
2022/12/05 03:11:05;;;;;;;17.90;10.00;;;4.30;99.90;;;;;;5060343;28;20024;-71
2022/12/05 03:13:38;;;;;;;16.00;9.43;;;4.30;99.90;;;;;;5060383;28;20036;-71
2022/12/05 03:16:12;;;;;;;18.27;9.57;;;4.20;99.90;;;;;;5060639;28;20025;-71
2022/12/05 03:19:01;;;;;;;17.67;9.80;;;4.20;99.90;;;;;;5060929;28;20033;-71
2022/12/05 03:21:34;;;;;;;16.35;9.50;;;4.20;99.90;;;;;;5041719;28;20041;-72
2022/12/05 03:24:10;;;;;;;18.88;9.63;;;4.30;99.90;;;;;;5043174;28;20028;-71
2022/12/05 03:26:56;;;;;;;17.88;10.30;;;4.30;99.90;;;;;;5059180;28;20029;-71
2022/12/05 03:29:46;;;;;;;18.50;10.00;;;4.20;99.90;;;;;;5059171;28;20048;-71
2022/12/05 03:32:21;;;;;;;15.43;9.77;;;4.20;99.90;;;;;;5041615;28;20032;-71
2022/12/05 03:35:06;;;;;;;17.25;9.70;;;4.20;99.90;;;;;;5040986;28;20086;-71
2022/12/05 03:37:52;;;;;;;16.52;10.27;;;4.20;99.90;;;;;;5041539;28;20116;-71
2022/12/05 03:41:00;;;;;;;16.63;9.63;;;4.20;99.90;;;;;;5040894;28;20476;-71
2022/12/05 03:43:46;;;;;;;17.83;9.63;;;4.10;99.90;;;;;;5014591;28;20033;-71
2022/12/05 03:46:22;;;;;;;16.42;9.80;;;4.10;99.90;;;;;;5041101;28;20025;-71
2022/12/05 03:49:13;;;;;;;17.13;10.75;;;4.10;99.90;;;;;;5057889;28;20059;-71
2022/12/05 03:51:50;;;;;;;17.15;9.80;;;4.10;99.90;;;;;;5058858;28;20057;-71
2022/12/05 03:54:24;;;;;;;16.13;8.90;;;4.10;99.90;;;;;;5058292;28;20040;-71
2022/12/05 03:56:59;;;;;;;17.63;9.75;;;4.10;99.90;;;;;;5057560;28;20021;-71
2022/12/05 03:59:32;;;;;;;15.85;9.50;;;4.10;99.90;;;;;;5057595;28;20020;-71
2022/12/05 04:02:03;;;;;;;15.32;9.30;;;4.10;99.90;;;;;;5058133;28;20116;-71
2022/12/05 04:04:43;;;;;;;16.95;9.55;;;4.10;99.90;;;;;;5057534;28;20086;-71
2022/12/05 04:07:10;;;;;;;14.98;9.43;;;4.00;99.90;;;;;;5039172;28;20029;-71
2022/12/05 04:09:50;;;;;;;15.85;9.45;;;4.00;99.90;;;;;;5057260;28;20395;-71
2022/12/05 04:12:23;;;;;;;16.20;9.93;;;4.10;99.90;;;;;;5056779;28;20090;-71
2022/12/05 04:15:00;;;;;;;13.90;8.75;;;4.00;99.90;;;;;;5039118;28;20036;-71
2022/12/05 04:17:49;;;;;;;15.38;9.10;;;4.00;99.90;;;;;;5057131;28;20017;-71
2022/12/05 04:23:18;;;;;;;18.33;9.48;;;4.00;99.90;;;;;;5055909;28;19958;-72
2022/12/05 04:26:11;;;;;;;18.20;10.00;;;4.00;99.90;;;;;;5039083;28;20029;-71
2022/12/05 04:29:03;;;;;;;18.55;10.38;;;4.00;99.90;;;;;;5050934;28;20033;-71
2022/12/05 04:31:37;;;;;;;16.85;10.20;;;4.00;99.90;;;;;;5056790;28;20073;-72
2022/12/05 04:34:06;;;;;;;17.98;9.32;;;4.00;99.90;;;;;;5055705;28;20033;-71
2022/12/05 04:36:41;;;;;;;19.48;10.98;;;3.90;99.90;;;;;;5038710;28;20029;-72
2022/12/05 04:39:11;;;;;;;18.08;9.75;;;4.00;99.90;;;;;;5056689;28;20033;-71
2022/12/05 04:41:41;;;;;;;16.40;9.55;;;3.90;99.90;;;;;;5056650;28;20461;-72
2022/12/05 04:44:11;;;;;;;19.80;10.55;;;3.90;99.90;;;;;;5058702;28;20480;-71
2022/12/05 04:46:40;;;;;;;18.65;10.65;;;3.90;99.90;;;;;;5056510;28;20031;-71
2022/12/05 04:49:09;;;;;;;18.85;10.65;;;3.90;99.90;;;;;;5038819;28;20025;-72
2022/12/05 04:51:37;;;;;;;17.05;9.70;;;3.90;99.90;;;;;;5038724;28;20029;-72
2022/12/05 04:54:29;;;;;;;18.67;10.05;;;3.90;99.90;;;;;;5056025;28;20029;-71
2022/12/05 04:57:19;;;;;;;20.52;10.63;;;3.90;99.90;;;;;;5039746;28;20029;-71
2022/12/05 04:59:45;;;;;;;17.30;9.77;;;3.90;99.90;;;;;;5040931;28;20473;-72
2022/12/05 05:02:17;;;;;;;17.90;10.38;;;3.90;99.90;;;;;;5061864;28;20052;-72
2022/12/05 05:04:49;;;;;;;19.00;10.48;;;3.90;99.90;;;;;;5062946;28;20036;-72
2022/12/05 05:07:16;;;;;;;19.52;10.52;;;3.90;99.90;;;;;;5044567;28;20119;-71
2022/12/05 05:09:43;;;;;;;20.40;10.93;;;3.90;99.90;;;;;;5061362;28;20120;-73
2022/12/05 05:12:09;;;;;;;20.60;11.13;;;3.90;99.90;;;;;;5043820;28;20166;-70
2022/12/05 05:14:35;;;;;;;20.15;10.88;;;3.90;99.90;;;;;;5060751;28;20029;-72
2022/12/05 05:17:00;;;;;;;23.27;11.88;;;3.90;99.90;;;;;;5060035;28;20043;-72
2022/12/05 05:19:26;;;;;;;20.38;10.50;;;3.90;99.90;;;;;;5041130;28;20031;-72
2022/12/05 05:21:52;;;;;;;19.33;11.27;;;3.90;99.90;;;;;;5041434;28;20025;-72
2022/12/05 05:24:20;;;;;;;20.88;11.63;;;3.90;99.90;;;;;;5059283;28;20112;-72
2022/12/05 05:26:46;;;;;;;19.52;11.50;;;3.90;99.90;;;;;;5058937;28;20021;-71
2022/12/05 05:29:13;;;;;;;19.83;11.05;;;3.90;99.90;;;;;;5059529;28;20033;-71
2022/12/05 05:31:40;;;;;;;20.75;11.25;;;3.90;99.90;;;;;;5058562;28;20037;-72
2022/12/05 05:34:07;;;;;;;26.13;12.52;;;3.90;99.90;;;;;;5058398;28;20476;-71
2022/12/05 05:36:33;;;;;;;25.27;11.30;;;3.90;99.90;;;;;;5058678;28;20067;-71
2022/12/05 05:39:00;;;;;;;22.38;11.77;;;3.90;99.90;;;;;;5059097;28;20081;-72
2022/12/05 05:41:29;;;;;;;21.20;11.32;;;3.90;99.90;;;;;;5039779;28;20043;-72
2022/12/05 05:43:55;;;;;;;19.67;11.13;;;3.80;99.90;;;;;;5059386;28;20100;-72
2022/12/05 05:46:27;;;;;;;22.38;11.75;;;3.90;99.90;;;;;;5040295;28;20030;-72
2022/12/05 05:48:54;;;;;;;21.30;12.18;;;3.90;99.90;;;;;;5057345;28;20108;-72
2022/12/05 05:51:21;;;;;;;24.05;12.38;;;3.90;99.90;;;;;;5040452;28;20033;-72
2022/12/05 05:53:47;;;;;;;24.55;11.13;;;3.80;99.90;;;;;;5038960;28;20044;-71
2022/12/05 05:56:16;;;;;;;22.33;12.05;;;3.80;99.90;;;;;;5038732;28;20021;-71
2022/12/05 05:58:42;;;;;;;24.80;12.70;;;3.80;99.90;;;;;;5037945;28;20032;-71
2022/12/05 06:01:10;;;;;;;25.02;12.68;;;3.80;99.90;;;;;;5056782;28;20107;-71
2022/12/05 06:03:36;;;;;;;22.08;11.75;;;3.80;99.90;;;;;;5056536;28;20027;-71
2022/12/05 06:06:05;;;;;;;22.10;12.68;;;3.80;99.90;;;;;;5039576;28;20036;-71
2022/12/05 06:08:35;;;;;;;24.17;12.55;;;3.80;99.90;;;;;;5057920;28;20091;-72
2022/12/05 06:11:05;;;;;;;21.23;12.18;;;3.80;99.90;;;;;;5040823;28;20472;-71
2022/12/05 06:13:32;;;;;;;23.77;12.10;;;3.90;99.90;;;;;;5061036;28;20099;-71
2022/12/05 06:15:58;;;;;;;22.98;12.43;;;3.90;99.90;;;;;;5046323;28;20029;-72
2022/12/05 06:18:26;;;;;;;26.75;12.50;;;3.80;99.90;;;;;;5047545;28;20039;-72
2022/12/05 06:20:58;;;;;;;22.75;12.35;;;3.90;99.90;;;;;;5066151;28;20035;-72
2022/12/05 06:23:25;;;;;;;22.15;11.80;;;3.80;99.90;;;;;;5046310;28;20040;-72
2022/12/05 06:25:55;;;;;;;24.55;13.32;;;3.80;99.90;;;;;;5060784;28;20094;-72
2022/12/05 06:28:23;;;;;;;23.38;12.30;;;3.90;99.90;;;;;;5042843;28;20052;-72
2022/12/05 06:30:49;;;;;;;24.45;13.13;;;3.90;99.90;;;;;;5043462;28;20033;-71
2022/12/05 06:33:16;;;;;;;25.20;12.75;;;3.90;99.90;;;;;;5060960;28;20033;-72
2022/12/05 06:35:42;;;;;;;22.77;12.40;;;3.90;99.90;;;;;;5044465;28;20040;-72
2022/12/05 06:38:08;;;;;;;22.75;12.73;;;3.80;99.90;;;;;;5061015;28;20033;-72
2022/12/05 06:40:34;;;;;;;20.65;12.30;;;3.80;99.90;;;;;;5061128;28;20477;-72
2022/12/05 06:42:59;;;;;;;23.17;12.90;;;3.90;99.90;;;;;;5060560;28;20036;-72
2022/12/05 06:45:25;;;;;;;20.00;12.00;;;3.80;99.90;;;;;;5041596;28;20439;-72
2022/12/05 06:47:52;;;;;;;26.92;14.57;;;3.80;99.90;;;;;;5043970;28;20029;-72
2022/12/05 06:50:18;;;;;;;25.08;12.65;;;3.90;99.90;;;;;;5080380;28;20028;-72
2022/12/05 06:52:43;;;;;;;22.20;12.57;;;3.90;99.90;;;;;;5079472;28;20464;-72
2022/12/05 06:55:09;;;;;;;20.05;12.23;;;3.90;99.90;;;;;;5080247;28;20027;-71
2022/12/05 06:57:35;;;;;;;24.90;13.38;;;3.80;99.90;;;;;;5063835;28;20035;-71
2022/12/05 07:02:45;;;;;;;22.08;12.05;;;3.80;99.90;;;;;;5077664;28;20039;-72
2022/12/05 07:05:11;;;;;;;22.98;12.70;;;3.80;99.90;;;;;;5078846;28;20021;-71
2022/12/05 07:07:37;;;;;;;23.38;12.20;;;3.90;99.90;;;;;;5080285;28;20472;-71
2022/12/05 07:10:04;;;;;;;26.15;12.60;;;3.90;99.90;;;;;;5080509;28;20078;-72
2022/12/05 07:12:32;;;;;;;22.73;11.98;;;3.90;99.90;;;;;;5062495;28;20032;-72
2022/12/05 07:14:58;;;;;;;24.40;12.88;;;4.00;99.90;;;;;;5061530;28;20029;-71
2022/12/05 07:17:24;;;;;;;25.40;12.88;;;4.00;99.90;;;;;;5062193;28;20380;-71
2022/12/05 07:19:51;;;;;;;22.85;12.35;;;3.90;99.90;;;;;;5060858;28;20036;-72
2022/12/05 07:22:19;;;;;;;28.55;13.82;;;4.00;99.90;;;;;;5061234;28;20050;-72
2022/12/05 07:24:45;;;;;;;27.08;13.35;;;4.00;99.90;;;;;;5077119;28;20025;-72
2022/12/05 07:27:13;;;;;;;28.92;13.85;;;4.00;99.90;;;;;;5079089;28;20373;-72
2022/12/05 07:29:38;;;;;;;30.10;13.45;;;4.00;99.90;;;;;;5060443;28;20123;-72
2022/12/05 07:32:04;;;;;;;25.58;13.25;;;4.00;99.90;;;;;;5077873;28;20060;-72
2022/12/05 07:34:30;;;;;;;28.83;14.07;;;4.10;99.90;;;;;;5077483;28;20063;-73
2022/12/05 07:36:56;;;;;;;30.30;14.25;;;4.10;99.90;;;;;;5078423;28;20020;-72
2022/12/05 07:39:21;;;;;;;29.95;15.65;;;4.10;99.90;;;;;;5077506;28;20052;-71
2022/12/05 07:41:47;;;;;;;29.45;13.98;;;4.10;99.90;;;;;;5077632;28;20028;-71
2022/12/05 07:44:13;;;;;;;30.08;14.90;;;4.10;99.90;;;;;;5059709;28;20396;-71
2022/12/05 07:46:39;;;;;;;31.48;14.63;;;4.10;99.90;;;;;;5058610;28;20518;-72
2022/12/05 07:49:06;;;;;;;33.90;14.55;;;4.10;99.90;;;;;;5058489;28;20032;-72
2022/12/05 07:51:33;;;;;;;28.20;14.73;;;4.10;99.90;;;;;;5076134;28;20088;-72
2022/12/05 07:54:00;;;;;;;31.02;14.23;;;4.10;99.90;;;;;;5076819;28;20059;-72
2022/12/05 07:56:25;;;;;;;37.08;15.40;;;4.10;99.90;;;;;;5059456;28;20024;-72
2022/12/05 07:58:52;;;;;;;30.17;14.38;;;4.10;99.90;;;;;;5060716;28;20020;-72
2022/12/05 08:01:25;;;;;;;33.17;15.27;;;4.10;99.90;;;;;;5059231;28;20489;-71
2022/12/05 08:03:53;;;;;;;34.65;15.15;;;4.10;99.90;;;;;;5059682;28;20036;-71
2022/12/05 08:06:21;;;;;;;35.45;15.90;;;4.10;99.90;;;;;;5077457;28;20032;-72
2022/12/05 08:08:48;;;;;;;30.57;14.80;;;4.20;99.90;;;;;;5077009;28;20127;-72
2022/12/05 08:11:20;;;;;;;40.80;15.88;;;4.20;99.90;;;;;;5060032;28;20035;-71
2022/12/05 08:13:46;;;;;;;31.13;13.70;;;4.20;99.90;;;;;;5078535;28;20060;-72
2022/12/05 08:16:18;;;;;;;29.30;14.23;;;4.20;99.90;;;;;;5060300;28;20035;-72
2022/12/05 08:18:44;;;;;;;31.02;13.98;;;4.10;99.90;;;;;;5061130;28;20056;-72
2022/12/05 08:21:16;;;;;;;30.80;13.50;;;4.20;99.90;;;;;;5078590;28;20025;-71
2022/12/05 08:23:43;;;;;;;30.05;13.32;;;4.20;99.90;;;;;;5079574;28;20028;-72
2022/12/05 08:26:10;;;;;;;31.45;14.18;;;4.20;99.90;;;;;;5059936;28;20024;-72
2022/12/05 08:28:36;;;;;;;33.05;13.50;;;4.20;99.90;;;;;;5059825;28;20540;-72
2022/12/05 08:31:10;;;;;;;33.53;14.80;;;4.20;99.90;;;;;;5060146;28;20052;-71
2022/12/05 08:33:36;;;;;;;31.40;13.68;;;4.20;99.90;;;;;;5077529;28;20032;-71
2022/12/05 08:36:03;;;;;;;31.33;13.65;;;4.20;99.90;;;;;;5078195;28;20074;-72
2022/12/05 08:38:30;;;;;;;28.48;12.73;;;4.20;99.90;;;;;;5059603;28;20029;-72
2022/12/05 08:40:55;;;;;;;33.67;13.48;;;4.10;99.90;;;;;;5077223;28;20085;-72
2022/12/05 08:43:21;;;;;;;32.35;15.18;;;4.10;99.90;;;;;;5059105;28;20024;-71
2022/12/05 08:45:51;;;;;;;37.78;14.40;;;4.00;99.90;;;;;;5077171;28;20083;-72
2022/12/05 08:48:17;;;;;;;28.70;14.13;;;4.00;99.90;;;;;;5060265;28;20024;-72
2022/12/05 08:50:43;;;;;;;37.35;15.85;;;4.10;99.90;;;;;;5064476;28;20193;-72
2022/12/05 08:53:09;;;;;;;38.80;16.50;;;4.10;99.90;;;;;;5065885;28;20028;-73
2022/12/05 08:55:35;;;;;;;39.85;15.80;;;4.10;99.90;;;;;;5083682;28;20032;-72
2022/12/05 08:58:01;;;;;;;37.22;14.93;;;4.10;99.90;;;;;;5082809;28;20531;-72
2022/12/05 09:00:27;;;;;;;33.20;14.30;;;4.10;99.90;;;;;;5063714;28;20055;-72
2022/12/05 09:02:52;;;;;;;40.17;15.80;;;4.20;99.90;;;;;;5062804;28;20414;-72
2022/12/05 09:05:18;;;;;;;37.72;15.05;;;4.20;99.90;;;;;;5063498;28;20024;-72
2022/12/05 09:07:44;;;;;;;35.58;15.02;;;4.30;99.90;;;;;;5079109;28;20033;-72
2022/12/05 09:10:10;;;;;;;39.10;15.18;;;4.30;99.90;;;;;;5061248;28;20049;-72
2022/12/05 09:12:36;;;;;;;36.25;14.73;;;4.20;99.90;;;;;;5061676;28;20033;-71
2022/12/05 09:15:04;;;;;;;34.58;15.73;;;4.30;99.90;;;;;;5061028;28;20434;-72
2022/12/05 09:17:30;;;;;;;37.38;15.57;;;4.30;99.90;;;;;;5079013;28;20025;-72
2022/12/05 09:19:56;;;;;;;35.45;15.65;;;4.30;99.90;;;;;;5078606;28;20021;-72
2022/12/05 09:22:21;;;;;;;40.40;14.45;;;4.30;99.90;;;;;;5077987;28;20112;-72
2022/12/05 09:24:47;;;;;;;32.88;14.82;;;4.40;99.90;;;;;;5060581;28;20356;-71
2022/12/05 09:27:13;;;;;;;34.33;14.82;;;4.40;99.90;;;;;;5060192;28;20031;-72
2022/12/05 09:29:39;;;;;;;31.13;14.45;;;4.40;99.90;;;;;;5079070;28;20033;-72
2022/12/05 09:32:05;;;;;;;35.35;14.57;;;4.50;99.90;;;;;;5079697;28;20036;-72
2022/12/05 09:34:30;;;;;;;35.22;15.00;;;4.50;99.90;;;;;;5060094;28;20032;-72
2022/12/05 09:36:56;;;;;;;32.40;14.70;;;4.40;99.90;;;;;;5078051;28;20025;-72
2022/12/05 09:39:23;;;;;;;33.85;15.20;;;4.40;99.90;;;;;;5059633;28;20020;-72
2022/12/05 09:42:17;;;;;;;32.75;15.30;;;4.50;99.90;;;;;;5079041;28;20128;-72
2022/12/05 09:45:03;;;;;;;29.50;13.57;;;4.50;99.90;;;;;;5060342;28;20464;-72
2022/12/05 09:47:44;;;;;;;29.45;14.05;;;4.50;99.90;;;;;;5060466;28;20392;-72
2022/12/05 09:50:33;;;;;;;34.72;15.27;;;4.60;99.90;;;;;;5062583;28;20124;-72
2022/12/05 09:53:08;;;;;;;34.65;15.48;;;4.60;99.90;;;;;;5063919;28;20032;-72
2022/12/05 09:55:51;;;;;;;26.77;13.60;;;4.50;99.90;;;;;;5079343;28;20028;-72
2022/12/05 09:58:28;;;;;;;34.85;15.27;;;4.50;99.90;;;;;;5061472;28;20440;-71
2022/12/05 10:01:41;;;;;;;36.97;15.00;;;4.40;99.90;;;;;;5061263;28;20541;-71
2022/12/05 10:04:33;;;;;;;33.22;15.70;;;4.40;99.90;;;;;;5060866;28;20054;-71
2022/12/05 10:07:27;;;;;;;27.90;13.30;;;4.50;99.90;;;;;;5062686;28;20032;-72
2022/12/05 10:10:14;;;;;;;31.02;14.40;;;4.40;99.90;;;;;;5062691;28;20056;-73
2022/12/05 10:13:10;;;;;;;36.75;15.45;;;4.50;99.90;;;;;;5062281;28;20032;-72
2022/12/05 10:15:47;;;;;;;34.33;14.10;;;4.50;99.90;;;;;;5062777;28;20079;-72
2022/12/05 10:18:31;;;;;;;38.97;15.63;;;4.50;99.90;;;;;;5081325;28;20020;-71
2022/12/05 10:21:04;;;;;;;35.22;14.50;;;4.50;99.90;;;;;;5061726;28;20056;-72
2022/12/05 10:23:56;;;;;;;28.70;14.20;;;4.50;99.90;;;;;;5062158;28;20056;-72
2022/12/05 10:26:27;;;;;;;32.97;15.60;;;4.50;99.90;;;;;;5063365;28;20115;-72
2022/12/05 10:29:10;;;;;;;34.72;15.63;;;4.50;99.90;;;;;;5079229;28;20029;-72
2022/12/05 10:31:38;;;;;;;35.03;14.98;;;4.50;99.90;;;;;;5081242;28;20028;-72
2022/12/05 10:34:13;;;;;;;29.55;14.43;;;4.50;99.90;;;;;;5067908;28;20096;-74
2022/12/05 10:36:45;;;;;;;32.85;13.70;;;4.50;99.90;;;;;;5085833;28;20031;-72
2022/12/05 10:39:11;;;;;;;32.50;14.77;;;4.50;99.90;;;;;;5085390;28;20021;-72
2022/12/05 10:41:37;;;;;;;35.95;16.15;;;4.50;99.90;;;;;;5065379;28;20028;-72
2022/12/05 10:44:04;;;;;;;34.25;14.85;;;4.50;99.90;;;;;;5082495;28;20029;-72
2022/12/05 10:46:30;;;;;;;40.30;15.40;;;4.50;99.90;;;;;;5063433;28;20028;-72
2022/12/05 10:48:56;;;;;;;32.33;15.40;;;4.50;99.90;;;;;;5082520;28;20453;-71
2022/12/05 10:51:26;;;;;;;35.83;15.27;;;4.50;99.90;;;;;;5064065;28;20052;-72
2022/12/05 10:53:53;;;;;;;33.58;13.68;;;4.50;99.90;;;;;;5064000;28;20360;-72
2022/12/05 10:56:41;;;;;;;35.58;15.50;;;4.60;99.90;;;;;;5079465;28;20021;-72
2022/12/05 10:59:09;;;;;;;36.03;16.10;;;4.60;99.90;;;;;;5078780;28;20383;-73
2022/12/05 11:01:37;;;;;;;39.88;17.38;;;4.60;99.90;;;;;;5077819;28;20039;-72
2022/12/05 11:04:20;;;;;;;32.45;13.93;;;4.70;99.90;;;;;;5077748;28;20024;-72
2022/12/05 11:06:55;;;;;;;31.23;14.63;;;4.70;99.90;;;;;;5077553;28;20021;-72
2022/12/05 11:09:24;;;;;;;36.65;15.23;;;4.70;99.90;;;;;;5077163;28;20079;-73
2022/12/05 11:12:16;;;;;;;35.70;14.55;;;4.70;99.90;;;;;;5059555;28;20381;-72
2022/12/05 11:15:03;;;;;;;31.75;13.55;;;4.80;99.90;;;;;;5057990;28;20124;-72
2022/12/05 11:17:37;;;;;;;33.15;14.60;;;4.80;99.90;;;;;;5078470;28;20024;-72
2022/12/05 11:20:15;;;;;;;28.48;13.57;;;4.80;99.90;;;;;;5077196;28;20480;-72
2022/12/05 11:22:41;;;;;;;34.10;16.08;;;4.80;99.90;;;;;;5076925;28;20037;-72
2022/12/05 11:25:28;;;;;;;32.75;15.02;;;4.80;99.90;;;;;;5058853;28;20031;-72
2022/12/05 11:27:55;;;;;;;32.58;15.38;;;4.80;99.90;;;;;;5058633;28;20028;-72
2022/12/05 11:30:26;;;;;;;31.00;15.07;;;4.80;99.90;;;;;;5077173;28;20028;-72
2022/12/05 11:33:29;;;;;;;32.38;14.95;;;4.80;99.90;;;;;;5058744;28;20032;-72
2022/12/05 11:36:09;;;;;;;32.63;14.80;;;4.90;99.90;;;;;;5057417;28;20037;-72
2022/12/05 11:38:35;;;;;;;38.83;17.40;;;4.90;99.90;;;;;;5058476;28;20036;-73
2022/12/05 11:41:36;;;;;;;37.45;16.25;;;4.90;99.90;;;;;;5076875;28;20031;-72
2022/12/05 11:44:39;;;;;;;34.15;15.75;;;5.00;99.90;;;;;;5076847;28;20073;-72
2022/12/05 11:47:21;;;;;;;38.80;16.58;;;5.00;99.90;;;;;;5077447;28;20349;-72
2022/12/05 11:50:10;;;;;;;31.40;15.10;;;5.00;99.90;;;;;;5077016;28;20112;-72
2022/12/05 11:53:07;;;;;;;30.00;15.52;;;4.90;99.90;;;;;;5076428;28;20032;-72
2022/12/05 11:55:57;;;;;;;32.15;14.57;;;4.90;99.90;;;;;;5068698;28;20503;-72
2022/12/05 11:58:53;;;;;;;32.03;15.38;;;4.90;99.90;;;;;;5079078;28;20037;-73
2022/12/05 12:01:53;;;;;;;28.67;14.60;;;5.00;99.90;;;;;;5058953;28;20111;-73
2022/12/05 12:04:31;;;;;;;29.25;13.30;;;5.00;99.90;;;;;;5056636;28;20107;-72
2022/12/05 12:06:56;;;;;;;29.20;13.90;;;5.00;99.90;;;;;;5058097;28;20021;-72
2022/12/05 12:09:45;;;;;;;28.73;13.95;;;5.00;99.90;;;;;;5057019;28;20051;-72
2022/12/05 12:12:25;;;;;;;31.17;14.32;;;5.00;99.90;;;;;;5057928;28;20028;-72
2022/12/05 12:15:02;;;;;;;27.63;13.02;;;5.00;99.90;;;;;;5057754;28;20032;-72
2022/12/05 12:17:47;;;;;;;29.70;13.95;;;5.00;99.90;;;;;;5057951;28;20056;-71
2022/12/05 12:20:36;;;;;;;30.83;14.10;;;4.90;99.90;;;;;;5075309;28;20029;-73
2022/12/05 12:23:20;;;;;;;;;;;4.90;99.90;;;;;;5055988;28;20119;-72
2022/12/05 12:25:49;;;;;;;30.17;13.88;;;4.90;99.90;;;;;;5075398;28;19904;-73
2022/12/05 12:28:32;;;;;;;27.83;12.98;;;4.90;99.90;;;;;;5075655;28;20535;-71
2022/12/05 12:31:35;;;;;;;27.95;13.35;;;4.90;99.90;;;;;;5057549;28;20036;-72
2022/12/05 12:34:28;;;;;;;32.22;13.90;;;4.90;99.90;;;;;;5058171;28;20040;-72
2022/12/05 12:37:25;;;;;;;29.58;13.75;;;4.80;99.90;;;;;;5076504;28;20033;-73
2022/12/05 12:40:03;;;;;;;32.78;14.88;;;4.90;99.90;;;;;;5077678;28;20024;-72
2022/12/05 12:43:01;;;;;;;38.03;14.45;;;4.80;99.90;;;;;;5078256;28;20035;-72
2022/12/05 12:45:38;;;;;;;34.13;15.70;;;4.80;99.90;;;;;;5062214;28;20476;-72
2022/12/05 12:48:29;;;;;;;35.75;15.85;;;4.80;99.90;;;;;;5076042;28;20037;-72
2022/12/05 12:50:58;;;;;;;30.67;14.52;;;4.90;99.90;;;;;;5076040;28;20434;-72
2022/12/05 12:53:42;;;;;;;33.90;14.88;;;4.90;99.90;;;;;;5058389;28;20032;-72
2022/12/05 12:56:11;;;;;;;26.65;13.57;;;4.90;99.90;;;;;;5075941;28;20086;-73
2022/12/05 12:59:06;;;;;;;33.50;13.65;;;5.00;99.90;;;;;;5076001;28;20511;-72
2022/12/05 13:01:53;;;;;;;33.63;14.68;;;5.00;99.90;;;;;;5075703;28;20036;-72
2022/12/05 13:04:27;;;;;;;34.90;14.77;;;4.90;99.90;;;;;;5075156;28;20028;-72
2022/12/05 13:06:56;;;;;;;29.13;12.88;;;4.90;99.90;;;;;;5075529;28;20025;-73
2022/12/05 13:09:31;;;;;;;;;;;4.90;99.90;;;;;;5058479;28;20040;-73
2022/12/05 13:12:04;;;;;;;27.73;12.82;;;4.90;99.90;;;;;;5057263;28;20015;-72
2022/12/05 13:14:31;;;;;;;27.85;13.43;;;4.90;99.90;;;;;;5079937;28;20036;-74